sensor_id;sensor_type;location;lat;lon;timestamp;pressure;altitude;pressure_sealevel;temperature;humidity
73651;BME280;61944;52.538;6.108;2023-07-28T00:01:50;100248.91;;;17.89;100.00
73651;BME280;61944;52.538;6.108;2023-07-28T00:04:16;100241.66;;;17.88;100.00
73651;BME280;61944;52.538;6.108;2023-07-28T00:06:41;100237.66;;;17.85;100.00
73651;BME280;61944;52.538;6.108;2023-07-28T00:09:06;100243.16;;;17.93;100.00
73651;BME280;61944;52.538;6.108;2023-07-28T00:11:32;100248.53;;;17.87;100.00
73651;BME280;61944;52.538;6.108;2023-07-28T00:13:57;100240.66;;;17.78;100.00
73651;BME280;61944;52.538;6.108;2023-07-28T00:16:23;100248.19;;;17.85;100.00
73651;BME280;61944;52.538;6.108;2023-07-28T00:18:48;100252.28;;;17.84;100.00
73651;BME280;61944;52.538;6.108;2023-07-28T00:21:13;100251.03;;;17.85;100.00
73651;BME280;61944;52.538;6.108;2023-07-28T00:23:39;100243.31;;;17.85;100.00
73651;BME280;61944;52.538;6.108;2023-07-28T00:26:04;100248.91;;;17.89;100.00
73651;BME280;61944;52.538;6.108;2023-07-28T00:28:29;100256.16;;;17.90;100.00
73651;BME280;61944;52.538;6.108;2023-07-28T00:30:55;100248.38;;;17.94;100.00
73651;BME280;61944;52.538;6.108;2023-07-28T00:33:20;100233.88;;;17.92;100.00
73651;BME280;61944;52.538;6.108;2023-07-28T00:35:45;100238.47;;;17.86;100.00
73651;BME280;61944;52.538;6.108;2023-07-28T00:38:11;100238.47;;;17.86;100.00
73651;BME280;61944;52.538;6.108;2023-07-28T00:40:36;100233.28;;;17.81;100.00
73651;BME280;61944;52.538;6.108;2023-07-28T00:43:02;100231.63;;;17.83;100.00
73651;BME280;61944;52.538;6.108;2023-07-28T00:45:28;100238.34;;;17.90;100.00
73651;BME280;61944;52.538;6.108;2023-07-28T00:47:55;100233.50;;;17.90;100.00
73651;BME280;61944;52.538;6.108;2023-07-28T00:50:23;100231.91;;;17.89;100.00
73651;BME280;61944;52.538;6.108;2023-07-28T00:52:49;100234.38;;;17.87;100.00
73651;BME280;61944;52.538;6.108;2023-07-28T00:55:14;100232.81;;;17.86;100.00
73651;BME280;61944;52.538;6.108;2023-07-28T00:57:40;100230.69;;;17.90;100.00
73651;BME280;61944;52.538;6.108;2023-07-28T01:00:06;100233.50;;;17.90;100.00
73651;BME280;61944;52.538;6.108;2023-07-28T01:02:31;100239.88;;;17.94;100.00
73651;BME280;61944;52.538;6.108;2023-07-28T01:04:57;100234.75;;;17.89;100.00
73651;BME280;61944;52.538;6.108;2023-07-28T01:10:06;100239.88;;;17.94;100.00
73651;BME280;61944;52.538;6.108;2023-07-28T01:12:33;100243.94;;;17.93;100.00
73651;BME280;61944;52.538;6.108;2023-07-28T01:14:58;100245.63;;;17.91;100.00
73651;BME280;61944;52.538;6.108;2023-07-28T01:17:24;100238.47;;;17.86;100.00
73651;BME280;61944;52.538;6.108;2023-07-28T01:19:50;100246.84;;;17.90;100.00
73651;BME280;61944;52.538;6.108;2023-07-28T01:27:34;100252.28;;;17.84;100.00
73651;BME280;61944;52.538;6.108;2023-07-28T01:30:00;100256.16;;;17.90;100.00
73651;BME280;61944;52.538;6.108;2023-07-28T01:32:25;100252.09;;;17.91;100.00
73651;BME280;61944;52.538;6.108;2023-07-28T01:34:50;100249.59;;;17.93;100.00
73651;BME280;61944;52.538;6.108;2023-07-28T01:37:16;100248.03;;;17.92;100.00
73651;BME280;61944;52.538;6.108;2023-07-28T01:39:41;100255.34;;;17.90;100.00
73651;BME280;61944;52.538;6.108;2023-07-28T01:42:07;100252.97;;;17.88;100.00
73651;BME280;61944;52.538;6.108;2023-07-28T01:44:32;100253.41;;;17.86;100.00
73651;BME280;61944;52.538;6.108;2023-07-28T01:46:57;100246.41;;;17.91;100.00
73651;BME280;61944;52.538;6.108;2023-07-28T01:49:23;100260.72;;;18.00;100.00
73651;BME280;61944;52.538;6.108;2023-07-28T01:51:48;100260.94;;;17.93;100.00
73651;BME280;61944;52.538;6.108;2023-07-28T01:54:13;100257.03;;;17.87;100.00
73651;BME280;61944;52.538;6.108;2023-07-28T01:56:39;100253.69;;;17.92;100.00
73651;BME280;61944;52.538;6.108;2023-07-28T01:59:04;100254.47;;;17.93;100.00
73651;BME280;61944;52.538;6.108;2023-07-28T02:01:29;100251.22;;;17.94;100.00
73651;BME280;61944;52.538;6.108;2023-07-28T02:03:55;100255.47;;;17.86;100.00
73651;BME280;61944;52.538;6.108;2023-07-28T02:06:20;100255.53;;;17.82;100.00
73651;BME280;61944;52.538;6.108;2023-07-28T02:08:46;100248.09;;;17.88;100.00
73651;BME280;61944;52.538;6.108;2023-07-28T02:11:11;100260.94;;;17.93;100.00
73651;BME280;61944;52.538;6.108;2023-07-28T02:13:36;100252.63;;;17.86;100.00
73651;BME280;61944;52.538;6.108;2023-07-28T02:16:05;100253.34;;;17.90;100.00
73651;BME280;61944;52.538;6.108;2023-07-28T02:18:30;100257.38;;;17.89;100.00
73651;BME280;61944;52.538;6.108;2023-07-28T02:20:56;100242.34;;;17.92;100.00
73651;BME280;61944;52.538;6.108;2023-07-28T02:23:21;100257.75;;;17.91;100.00
73651;BME280;61944;52.538;6.108;2023-07-28T02:25:46;100253.78;;;17.88;100.00
73651;BME280;61944;52.538;6.108;2023-07-28T02:28:12;100248.97;;;17.85;100.00
73651;BME280;61944;52.538;6.108;2023-07-28T02:30:37;100257.03;;;17.87;100.00
73651;BME280;61944;52.538;6.108;2023-07-28T02:33:03;100255.09;;;17.84;100.00
73651;BME280;61944;52.538;6.108;2023-07-28T02:35:28;100247.31;;;17.88;100.00
73651;BME280;61944;52.538;6.108;2023-07-28T02:37:54;100247.91;;;17.79;100.00
73651;BME280;61944;52.538;6.108;2023-07-28T02:40:19;100259.56;;;17.81;100.00
73651;BME280;61944;52.538;6.108;2023-07-28T02:42:44;100254.88;;;17.75;100.00
73651;BME280;61944;52.538;6.108;2023-07-28T02:45:10;100265.69;;;17.80;100.00
73651;BME280;61944;52.538;6.108;2023-07-28T02:47:36;100266.56;;;17.77;100.00
73651;BME280;61944;52.538;6.108;2023-07-28T02:50:01;100258.19;;;17.73;100.00
73651;BME280;61944;52.538;6.108;2023-07-28T02:52:27;100251.47;;;17.83;100.00
73651;BME280;61944;52.538;6.108;2023-07-28T02:54:52;100232.78;;;17.70;100.00
73651;BME280;61944;52.538;6.108;2023-07-28T02:57:18;100266.03;;;17.82;100.00
73651;BME280;61944;52.538;6.108;2023-07-28T02:59:43;100268.44;;;17.83;100.00
73651;BME280;61944;52.538;6.108;2023-07-28T03:02:08;100270.22;;;17.77;100.00
73651;BME280;61944;52.538;6.108;2023-07-28T03:04:34;100263.91;;;17.70;100.00
73651;BME280;61944;52.538;6.108;2023-07-28T03:06:59;100272.69;;;17.75;100.00
73651;BME280;61944;52.538;6.108;2023-07-28T03:09:24;100277.53;;;17.75;100.00
73651;BME280;61944;52.538;6.108;2023-07-28T03:11:50;100278.50;;;17.68;100.00
73651;BME280;61944;52.538;6.108;2023-07-28T03:14:15;100283.44;;;17.64;100.00
73651;BME280;61944;52.538;6.108;2023-07-28T03:16:41;100286.56;;;17.70;100.00
73651;BME280;61944;52.538;6.108;2023-07-28T03:19:07;100279.66;;;17.71;100.00
73651;BME280;61944;52.538;6.108;2023-07-28T03:21:32;100286.03;;;17.75;100.00
73651;BME280;61944;52.538;6.108;2023-07-28T03:23:58;100278.34;;;17.75;100.00
73651;BME280;61944;52.538;6.108;2023-07-28T03:26:23;100284.09;;;17.72;100.00
73651;BME280;61944;52.538;6.108;2023-07-28T03:28:49;100291.78;;;17.71;100.00
73651;BME280;61944;52.538;6.108;2023-07-28T03:31:14;100293.28;;;17.76;100.00
73651;BME280;61944;52.538;6.108;2023-07-28T03:33:40;100281.59;;;17.74;100.00
73651;BME280;61944;52.538;6.108;2023-07-28T03:36:05;100285.59;;;17.76;100.00
73651;BME280;61944;52.538;6.108;2023-07-28T03:38:30;100283.53;;;17.77;100.00
73651;BME280;61944;52.538;6.108;2023-07-28T03:40:56;100286.38;;;17.77;100.00
73651;BME280;61944;52.538;6.108;2023-07-28T03:43:21;100291.91;;;17.84;100.00
73651;BME280;61944;52.538;6.108;2023-07-28T03:45:47;100304.06;;;17.81;100.00
73651;BME280;61944;52.538;6.108;2023-07-28T03:48:12;100294.34;;;17.82;100.00
73651;BME280;61944;52.538;6.108;2023-07-28T03:50:38;100299.06;;;17.88;100.00
73651;BME280;61944;52.538;6.108;2023-07-28T03:53:03;100297.28;;;17.95;100.00
73651;BME280;61944;52.538;6.108;2023-07-28T03:55:28;100299.06;;;17.88;100.00
73651;BME280;61944;52.538;6.108;2023-07-28T03:57:54;100304.06;;;17.81;100.00
73651;BME280;61944;52.538;6.108;2023-07-28T04:00:19;100304.81;;;17.85;100.00
73651;BME280;61944;52.538;6.108;2023-07-28T04:02:45;100311.03;;;17.96;100.00
73651;BME280;61944;52.538;6.108;2023-07-28T04:05:11;100308.34;;;17.89;100.00
73651;BME280;61944;52.538;6.108;2023-07-28T04:07:36;100300.75;;;17.86;100.00
73651;BME280;61944;52.538;6.108;2023-07-28T04:10:02;100313.56;;;17.91;100.00
73651;BME280;61944;52.538;6.108;2023-07-28T04:12:28;100312.94;;;17.83;100.00
73651;BME280;61944;52.538;6.108;2023-07-28T04:14:53;100319.47;;;17.80;100.00
73651;BME280;61944;52.538;6.108;2023-07-28T04:17:18;100323.41;;;17.86;100.00
73651;BME280;61944;52.538;6.108;2023-07-28T04:19:44;100316.19;;;17.81;100.00
73651;BME280;61944;52.538;6.108;2023-07-28T04:22:09;100315.38;;;17.81;100.00
73651;BME280;61944;52.538;6.108;2023-07-28T04:24:34;100312.94;;;17.83;100.00
73651;BME280;61944;52.538;6.108;2023-07-28T04:27:00;100317.75;;;17.86;100.00
73651;BME280;61944;52.538;6.108;2023-07-28T04:29:25;100315.34;;;17.84;100.00
73651;BME280;61944;52.538;6.108;2023-07-28T04:31:52;100322.66;;;17.82;100.00
73651;BME280;61944;52.538;6.108;2023-07-28T04:34:17;100321.94;;;17.78;100.00
73651;BME280;61944;52.538;6.108;2023-07-28T04:36:43;100319.91;;;17.78;100.00
73651;BME280;61944;52.538;6.108;2023-07-28T04:39:08;100329.53;;;17.81;100.00
73651;BME280;61944;52.538;6.108;2023-07-28T04:41:34;100334.84;;;17.79;100.00
73651;BME280;61944;52.538;6.108;2023-07-28T04:43:59;100345.22;;;17.85;100.00
73651;BME280;61944;52.538;6.108;2023-07-28T04:46:24;100342.69;;;17.91;100.00
73651;BME280;61944;52.538;6.108;2023-07-28T04:48:50;100343.94;;;17.90;100.00
73651;BME280;61944;52.538;6.108;2023-07-28T04:51:15;100343.22;;;17.86;100.00
73651;BME280;61944;52.538;6.108;2023-07-28T04:53:41;100338.81;;;17.81;100.00
73651;BME280;61944;52.538;6.108;2023-07-28T04:56:07;100348.53;;;17.84;100.00
73651;BME280;61944;52.538;6.108;2023-07-28T04:58:33;100355.75;;;17.85;100.00
73651;BME280;61944;52.538;6.108;2023-07-28T05:00:58;100348.13;;;17.82;100.00
73651;BME280;61944;52.538;6.108;2023-07-28T05:03:24;100349.25;;;17.88;100.00
73651;BME280;61944;52.538;6.108;2023-07-28T05:05:50;100346.91;;;17.83;100.00
73651;BME280;61944;52.538;6.108;2023-07-28T05:08:15;100358.97;;;17.87;100.00
73651;BME280;61944;52.538;6.108;2023-07-28T05:10:41;100355.41;;;17.83;100.00
73651;BME280;61944;52.538;6.108;2023-07-28T05:13:08;100349.66;;;17.86;100.00
73651;BME280;61944;52.538;6.108;2023-07-28T05:15:33;100345.16;;;17.89;100.00
73651;BME280;61944;52.538;6.108;2023-07-28T05:17:59;100351.53;;;17.93;100.00
73651;BME280;61944;52.538;6.108;2023-07-28T05:20:24;100345.00;;;17.96;100.00
73651;BME280;61944;52.538;6.108;2023-07-28T05:22:49;100355.44;;;17.99;100.00
73651;BME280;61944;52.538;6.108;2023-07-28T05:25:15;100344.03;;;18.03;100.00
73651;BME280;61944;52.538;6.108;2023-07-28T05:27:40;100351.69;;;18.02;100.00
73651;BME280;61944;52.538;6.108;2023-07-28T05:30:06;100348.25;;;17.95;100.00
73651;BME280;61944;52.538;6.108;2023-07-28T05:32:32;100353.84;;;17.98;100.00
73651;BME280;61944;52.538;6.108;2023-07-28T05:34:57;100352.59;;;17.99;100.00
73651;BME280;61944;52.538;6.108;2023-07-28T05:37:23;100348.88;;;18.02;100.00
73651;BME280;61944;52.538;6.108;2023-07-28T05:39:48;100357.72;;;18.04;100.00
73651;BME280;61944;52.538;6.108;2023-07-28T05:42:14;100356.13;;;18.03;100.00
73651;BME280;61944;52.538;6.108;2023-07-28T05:44:39;100354.38;;;18.10;100.00
73651;BME280;61944;52.538;6.108;2023-07-28T05:47:05;100360.75;;;18.14;100.00
73651;BME280;61944;52.538;6.108;2023-07-28T05:49:31;100359.31;;;18.05;100.00
73651;BME280;61944;52.538;6.108;2023-07-28T05:51:57;100366.31;;;18.17;100.00
73651;BME280;61944;52.538;6.108;2023-07-28T05:54:22;100362.44;;;18.11;100.00
73651;BME280;61944;52.538;6.108;2023-07-28T05:56:48;100363.56;;;18.14;100.00
73651;BME280;61944;52.538;6.108;2023-07-28T05:59:13;100370.03;;;18.31;100.00
73651;BME280;61944;52.538;6.108;2023-07-28T06:01:38;100365.50;;;18.33;100.00
73651;BME280;61944;52.538;6.108;2023-07-28T06:04:04;100361.53;;;18.31;100.00
73651;BME280;61944;52.538;6.108;2023-07-28T06:06:29;100369.84;;;18.38;100.00
73651;BME280;61944;52.538;6.108;2023-07-28T06:08:55;100372.03;;;18.46;100.00
73651;BME280;61944;52.538;6.108;2023-07-28T06:11:20;100363.53;;;18.46;100.00
73651;BME280;61944;52.538;6.108;2023-07-28T06:13:46;100368.50;;;18.42;100.00
73651;BME280;61944;52.538;6.108;2023-07-28T06:16:12;100380.72;;;18.56;100.00
73651;BME280;61944;52.538;6.108;2023-07-28T06:18:38;100370.97;;;18.57;100.00
73651;BME280;61944;52.538;6.108;2023-07-28T06:21:03;100377.31;;;18.61;100.00
73651;BME280;61944;52.538;6.108;2023-07-28T06:23:28;100379.28;;;18.64;100.00
73651;BME280;61944;52.538;6.108;2023-07-28T06:25:54;100392.38;;;18.74;100.00
73651;BME280;61944;52.538;6.108;2023-07-28T06:28:20;100392.19;;;18.81;100.00
73651;BME280;61944;52.538;6.108;2023-07-28T06:30:46;100390.34;;;18.75;100.00
73651;BME280;61944;52.538;6.108;2023-07-28T06:33:11;100391.47;;;18.77;100.00
73651;BME280;61944;52.538;6.108;2023-07-28T06:35:36;100399.63;;;18.75;100.00
73651;BME280;61944;52.538;6.108;2023-07-28T06:38:03;100407.59;;;18.80;100.00
73651;BME280;61944;52.538;6.108;2023-07-28T06:40:28;100401.06;;;18.83;100.00
73651;BME280;61944;52.538;6.108;2023-07-28T06:42:54;100406.72;;;18.83;100.00
73651;BME280;61944;52.538;6.108;2023-07-28T06:45:20;100416.38;;;18.86;100.00
73651;BME280;61944;52.538;6.108;2023-07-28T06:47:45;100419.78;;;19.10;100.00
73651;BME280;61944;52.538;6.108;2023-07-28T06:50:11;100419.88;;;19.06;100.00
73651;BME280;61944;52.538;6.108;2023-07-28T06:52:37;100425.56;;;19.06;100.00
73651;BME280;61944;52.538;6.108;2023-07-28T06:55:03;100439.16;;;19.12;100.00
73651;BME280;61944;52.538;6.108;2023-07-28T06:57:29;100440.31;;;19.14;100.00
73651;BME280;61944;52.538;6.108;2023-07-28T06:59:54;100431.00;;;19.14;100.00
73651;BME280;61944;52.538;6.108;2023-07-28T07:02:20;100438.28;;;19.15;100.00
73651;BME280;61944;52.538;6.108;2023-07-28T07:04:45;100438.44;;;19.24;100.00
73651;BME280;61944;52.538;6.108;2023-07-28T07:07:11;100447.19;;;19.29;100.00
73651;BME280;61944;52.538;6.108;2023-07-28T07:09:36;100451.69;;;19.56;100.00
73651;BME280;61944;52.538;6.108;2023-07-28T07:12:02;100444.97;;;19.50;100.00
73651;BME280;61944;52.538;6.108;2023-07-28T07:14:27;100454.38;;;19.47;100.00
73651;BME280;61944;52.538;6.108;2023-07-28T07:16:53;100453.47;;;19.50;100.00
73651;BME280;61944;52.538;6.108;2023-07-28T07:19:19;100460.41;;;19.49;100.00
73651;BME280;61944;52.538;6.108;2023-07-28T07:21:44;100458.84;;;19.48;100.00
73651;BME280;61944;52.538;6.108;2023-07-28T07:24:10;100447.84;;;19.63;100.00
73651;BME280;61944;52.538;6.108;2023-07-28T07:26:38;100457.69;;;19.58;100.00
73651;BME280;61944;52.538;6.108;2023-07-28T07:29:04;100458.03;;;19.60;100.00
73651;BME280;61944;52.538;6.108;2023-07-28T07:31:29;100463.28;;;19.62;100.00
73651;BME280;61944;52.538;6.108;2023-07-28T07:33:55;100462.16;;;19.59;100.00
73651;BME280;61944;52.538;6.108;2023-07-28T07:36:20;100468.28;;;19.58;100.00
73651;BME280;61944;52.538;6.108;2023-07-28T07:38:46;100471.34;;;19.63;100.00
73651;BME280;61944;52.538;6.108;2023-07-28T07:41:14;100475.84;;;19.77;100.00
73651;BME280;61944;52.538;6.108;2023-07-28T07:43:44;100477.97;;;19.73;100.00
73651;BME280;61944;52.538;6.108;2023-07-28T07:46:10;100477.00;;;19.80;100.00
73651;BME280;61944;52.538;6.108;2023-07-28T07:48:35;100478.50;;;19.97;100.00
73651;BME280;61944;52.538;6.108;2023-07-28T07:51:00;100481.09;;;19.92;100.00
73651;BME280;61944;52.538;6.108;2023-07-28T07:53:26;100489.16;;;20.06;100.00
73651;BME280;61944;52.538;6.108;2023-07-28T07:55:51;100482.78;;;19.89;100.00
73651;BME280;61944;52.538;6.108;2023-07-28T07:58:16;100492.59;;;20.01;100.00
73651;BME280;61944;52.538;6.108;2023-07-28T08:00:42;100495.50;;;19.84;100.00
73651;BME280;61944;52.538;6.108;2023-07-28T08:03:09;100502.31;;;19.74;100.00
73651;BME280;61944;52.538;6.108;2023-07-28T08:05:35;100494.28;;;19.69;100.00
73651;BME280;61944;52.538;6.108;2023-07-28T08:08:01;100486.69;;;19.66;100.00
73651;BME280;61944;52.538;6.108;2023-07-28T08:10:26;100504.56;;;19.79;100.00
73651;BME280;61944;52.538;6.108;2023-07-28T08:12:53;100502.66;;;19.89;100.00
73651;BME280;61944;52.538;6.108;2023-07-28T08:15:20;100499.13;;;19.85;100.00
73651;BME280;61944;52.538;6.108;2023-07-28T08:17:45;100506.66;;;19.92;100.00
73651;BME280;61944;52.538;6.108;2023-07-28T08:20:10;100517.69;;;20.02;100.00
73651;BME280;61944;52.538;6.108;2023-07-28T08:22:36;100510.53;;;19.98;100.00
73651;BME280;61944;52.538;6.108;2023-07-28T08:25:01;100512.00;;;20.02;100.00
73651;BME280;61944;52.538;6.108;2023-07-28T08:27:26;100508.38;;;20.02;100.00
73651;BME280;61944;52.538;6.108;2023-07-28T08:29:52;100515.09;;;20.08;100.00
73651;BME280;61944;52.538;6.108;2023-07-28T08:32:17;100513.59;;;20.03;100.00
73651;BME280;61944;52.538;6.108;2023-07-28T08:34:43;100532.34;;;20.01;100.00
73651;BME280;61944;52.538;6.108;2023-07-28T08:37:08;100518.78;;;19.92;100.00
73651;BME280;61944;52.538;6.108;2023-07-28T08:39:34;100522.91;;;19.91;100.00
73651;BME280;61944;52.538;6.108;2023-07-28T08:42:00;100530.16;;;19.92;100.00
73651;BME280;61944;52.538;6.108;2023-07-28T08:44:27;100530.03;;;19.83;100.00
73651;BME280;61944;52.538;6.108;2023-07-28T08:46:54;100538.78;;;19.76;100.00
73651;BME280;61944;52.538;6.108;2023-07-28T08:49:19;100528.13;;;19.80;100.00
73651;BME280;61944;52.538;6.108;2023-07-28T08:51:56;100532.88;;;19.83;100.00
73651;BME280;61944;52.538;6.108;2023-07-28T08:54:23;100549.34;;;19.88;100.00
73651;BME280;61944;52.538;6.108;2023-07-28T08:56:48;100545.94;;;19.80;100.00
73651;BME280;61944;52.538;6.108;2023-07-28T08:59:21;100545.34;;;19.73;100.00
73651;BME280;61944;52.538;6.108;2023-07-28T09:01:49;100542.34;;;19.63;100.00
73651;BME280;61944;52.538;6.108;2023-07-28T09:04:15;100539.06;;;19.65;100.00
73651;BME280;61944;52.538;6.108;2023-07-28T09:06:44;100552.28;;;19.55;100.00
73651;BME280;61944;52.538;6.108;2023-07-28T09:09:10;100543.28;;;19.44;100.00
73651;BME280;61944;52.538;6.108;2023-07-28T09:11:47;100556.94;;;19.49;100.00
73651;BME280;61944;52.538;6.108;2023-07-28T09:14:13;100550.00;;;19.50;100.00
73651;BME280;61944;52.538;6.108;2023-07-28T09:16:39;100537.63;;;19.44;100.00
73651;BME280;61944;52.538;6.108;2023-07-28T09:19:06;100553.66;;;19.50;100.00
73651;BME280;61944;52.538;6.108;2023-07-28T09:21:32;100549.50;;;19.39;100.00
73651;BME280;61944;52.538;6.108;2023-07-28T09:23:59;100549.09;;;19.53;100.00
73651;BME280;61944;52.538;6.108;2023-07-28T09:26:37;100553.00;;;19.59;100.00
73651;BME280;61944;52.538;6.108;2023-07-28T09:29:11;100562.25;;;19.47;100.00
73651;BME280;61944;52.538;6.108;2023-07-28T09:31:37;100552.22;;;19.59;100.00
73651;BME280;61944;52.538;6.108;2023-07-28T09:34:06;100553.19;;;19.52;100.00
73651;BME280;61944;52.538;6.108;2023-07-28T09:36:32;100561.81;;;19.48;100.00
73651;BME280;61944;52.538;6.108;2023-07-28T09:38:58;100557.97;;;19.55;100.00
73651;BME280;61944;52.538;6.108;2023-07-28T09:41:24;100553.28;;;19.48;100.00
73651;BME280;61944;52.538;6.108;2023-07-28T09:43:50;100562.88;;;19.55;100.00
73651;BME280;61944;52.538;6.108;2023-07-28T09:46:17;100564.25;;;19.63;100.00
73651;BME280;61944;52.538;6.108;2023-07-28T09:48:45;100564.34;;;19.59;100.00
73651;BME280;61944;52.538;6.108;2023-07-28T09:51:14;100569.94;;;19.63;100.00
73651;BME280;61944;52.538;6.108;2023-07-28T09:53:49;100568.66;;;19.80;100.00
73651;BME280;61944;52.538;6.108;2023-07-28T09:56:15;100572.16;;;19.72;100.00
73651;BME280;61944;52.538;6.108;2023-07-28T09:58:51;100565.75;;;19.67;100.00
73651;BME280;61944;52.538;6.108;2023-07-28T10:01:18;100572.59;;;19.70;100.00
73651;BME280;61944;52.538;6.108;2023-07-28T10:03:45;100573.91;;;19.65;100.00
73651;BME280;61944;52.538;6.108;2023-07-28T10:06:10;100572.22;;;19.68;100.00
73651;BME280;61944;52.538;6.108;2023-07-28T10:08:37;100555.19;;;19.68;100.00
73651;BME280;61944;52.538;6.108;2023-07-28T10:11:04;100571.94;;;19.79;100.00
73651;BME280;61944;52.538;6.108;2023-07-28T10:13:39;100578.97;;;19.74;100.00
73651;BME280;61944;52.538;6.108;2023-07-28T10:16:06;100565.38;;;19.82;100.00
73651;BME280;61944;52.538;6.108;2023-07-28T10:18:33;100574.34;;;19.80;100.00
73651;BME280;61944;52.538;6.108;2023-07-28T10:21:05;100568.34;;;19.91;100.00
73651;BME280;61944;52.538;6.108;2023-07-28T10:23:33;100568.47;;;20.00;100.00
73651;BME280;61944;52.538;6.108;2023-07-28T10:26:00;100585.44;;;20.17;100.00
73651;BME280;61944;52.538;6.108;2023-07-28T10:30:57;100587.19;;;20.52;100.00
73651;BME280;61944;52.538;6.108;2023-07-28T10:33:44;100587.19;;;20.52;100.00
73651;BME280;61944;52.538;6.108;2023-07-28T10:36:17;100582.13;;;20.60;100.00
73651;BME280;61944;52.538;6.108;2023-07-28T10:38:43;100580.75;;;20.65;100.00
73651;BME280;61944;52.538;6.108;2023-07-28T10:41:17;100578.81;;;20.75;100.00
73651;BME280;61944;52.538;6.108;2023-07-28T10:43:44;100586.78;;;20.80;100.00
73651;BME280;61944;52.538;6.108;2023-07-28T10:46:13;100581.19;;;20.76;100.00
73651;BME280;61944;52.538;6.108;2023-07-28T10:48:44;100576.78;;;20.75;100.00
73651;BME280;61944;52.538;6.108;2023-07-28T10:51:11;100583.94;;;20.67;100.00
73651;BME280;61944;52.538;6.108;2023-07-28T10:53:37;100587.13;;;20.69;100.00
73651;BME280;61944;52.538;6.108;2023-07-28T10:56:03;100586.34;;;20.68;100.00
73651;BME280;61944;52.538;6.108;2023-07-28T10:58:31;100582.56;;;20.84;100.00
73651;BME280;61944;52.538;6.108;2023-07-28T11:00:56;100588.47;;;20.90;100.00
73651;BME280;61944;52.538;6.108;2023-07-28T11:03:22;100585.38;;;20.97;100.00
73651;BME280;61944;52.538;6.108;2023-07-28T11:05:48;100577.84;;;21.03;100.00
73651;BME280;61944;52.538;6.108;2023-07-28T11:08:14;100579.53;;;21.26;100.00
73651;BME280;61944;52.538;6.108;2023-07-28T11:10:40;100581.47;;;21.29;100.00
73651;BME280;61944;52.538;6.108;2023-07-28T11:13:06;100582.91;;;21.47;100.00
73651;BME280;61944;52.538;6.108;2023-07-28T11:15:32;100579.03;;;21.41;100.00
73651;BME280;61944;52.538;6.108;2023-07-28T11:17:58;100588.22;;;21.58;100.00
73651;BME280;61944;52.538;6.108;2023-07-28T11:20:28;100563.56;;;21.86;100.00
73651;BME280;61944;52.538;6.108;2023-07-28T11:23:02;100585.75;;;22.13;100.00
73651;BME280;61944;52.538;6.108;2023-07-28T11:25:31;100577.75;;;21.99;100.00
73651;BME280;61944;52.538;6.108;2023-07-28T11:27:57;100587.38;;;21.70;100.00
73651;BME280;61944;52.538;6.108;2023-07-28T11:30:23;100573.72;;;21.87;100.00
73651;BME280;61944;52.538;6.108;2023-07-28T11:32:51;100580.03;;;22.04;100.00
73651;BME280;61944;52.538;6.108;2023-07-28T11:35:18;100585.84;;;22.53;100.00
73651;BME280;61944;52.538;6.108;2023-07-28T11:37:47;100584.63;;;22.32;100.00
73651;BME280;61944;52.538;6.108;2023-07-28T11:40:15;100590.88;;;22.18;100.00
73651;BME280;61944;52.538;6.108;2023-07-28T11:42:45;100595.53;;;22.25;100.00
73651;BME280;61944;52.538;6.108;2023-07-28T11:45:13;100588.34;;;22.42;100.00
73651;BME280;61944;52.538;6.108;2023-07-28T11:47:38;100591.63;;;22.63;100.00
73651;BME280;61944;52.538;6.108;2023-07-28T11:50:04;100583.00;;;22.94;100.00
73651;BME280;61944;52.538;6.108;2023-07-28T11:52:34;100586.75;;;23.22;100.00
73651;BME280;61944;52.538;6.108;2023-07-28T11:55:01;100579.88;;;23.10;100.00
73651;BME280;61944;52.538;6.108;2023-07-28T11:57:29;100587.97;;;23.12;100.00
73651;BME280;61944;52.538;6.108;2023-07-28T11:59:57;100581.31;;;23.06;100.00
73651;BME280;61944;52.538;6.108;2023-07-28T12:02:31;100579.13;;;23.28;100.00
73651;BME280;61944;52.538;6.108;2023-07-28T12:04:57;100581.16;;;23.19;100.00
73651;BME280;61944;52.538;6.108;2023-07-28T12:07:31;100579.66;;;22.96;100.00
73651;BME280;61944;52.538;6.108;2023-07-28T12:09:57;100579.41;;;23.03;100.00
73651;BME280;61944;52.538;6.108;2023-07-28T12:12:29;100588.03;;;23.49;100.00
73651;BME280;61944;52.538;6.108;2023-07-28T12:14:56;100596.91;;;23.32;100.00
73651;BME280;61944;52.538;6.108;2023-07-28T12:17:25;100582.94;;;23.44;100.00
73651;BME280;61944;52.538;6.108;2023-07-28T12:20:07;100584.25;;;23.80;100.00
73651;BME280;61944;52.538;6.108;2023-07-28T12:22:45;100581.06;;;23.59;100.00
73651;BME280;61944;52.538;6.108;2023-07-28T12:25:11;100579.47;;;23.49;100.00
73651;BME280;61944;52.538;6.108;2023-07-28T12:27:37;100575.00;;;23.29;100.00
73651;BME280;61944;52.538;6.108;2023-07-28T12:30:03;100590.56;;;23.28;100.00
73651;BME280;61944;52.538;6.108;2023-07-28T12:32:30;100591.53;;;23.53;100.00
73651;BME280;61944;52.538;6.108;2023-07-28T12:34:55;100589.75;;;23.46;100.00
73651;BME280;61944;52.538;6.108;2023-07-28T12:37:20;100597.28;;;23.99;100.00
73651;BME280;61944;52.538;6.108;2023-07-28T12:39:47;100598.66;;;23.67;100.00
73651;BME280;61944;52.538;6.108;2023-07-28T12:42:13;100600.09;;;23.44;100.00
73651;BME280;61944;52.538;6.108;2023-07-28T12:44:41;100597.50;;;23.18;100.00
73651;BME280;61944;52.538;6.108;2023-07-28T12:47:07;100599.59;;;23.18;100.00